Terminal Aerodrome Forecast
Issued by NWS

Home | Current Version | Previous Version | Text Only | Print | Product List | Glossary On
Versions: 1 2 3 4 5 6 7 8 9 10 11 12 13 14
000
FTUS43 KMPX 172300
TAFRNH
TAF
KRNH 172333Z 1800/1824 03004KT P6SM FEW050
     FM180800 07003KT 6SM BR FEW008
     FM181000 09003KT 4SM BR SCT008
     FM181300 13005KT P6SM SCT020
     FM181600 15007KT P6SM SCT040=

USA.gov is the U.S. government's official web portal to all federal, state and local government web resources and services.